Grizzly Air Cargo 5383


PAGA
Edward G Pitka Sr. Airport
Galena, Alaska, US
PAFA
Fairbanks International Airport
Fairbanks, Alaska, US

Activity Log

Date Flight Route Aircraft Duration
No Flights Yet

Route Details

Aircraft Information
Primary: Saab 340AF
Backup: Not Available
Route Data
Distance: 234nm
Sched. Duration: 1h 50m
Avg. Duration: 0h 00m (-150m)
Times Flown: 0
Recm'd Route: GAL J122 FAI
Planned Altitude: 25,000ft
Origin Wx: PAGA 311156Z 36004KT 10SM CLR 12/04 A2962 RMK AO2 SLP030 T01170039 10239 20100 58003
Dest. Wx: PAFA 311153Z 03005KT 10SM FEW070 SCT100 BKN200 11/04 A2964 RMK AO2 SLP040 VIRGA ACSL N-NE SE T01110039 10206 20094 53005
Notes:

Financial History
Total Freight: 0lbs
Average Load: 0lbs/flt
Fuel Used: 0lbs
Avg. Fuel Used: 0lbs/flt
Fuel Expense: $0
Avg. Fuel Expense: $0
Avg. Fuel Cost: $0/lbs
Total Gross Income: $0
Pilot Pay: $0
Total Expenses: $0
Total Revenue: $0
Average Revenue: $0